Time;durP1;ratioP1;P1;durP2;ratioP2;P2;SDS_P1;SDS_P2;PMS_P1;PMS_P2;Temp;Humidity;BMP_temperature;BMP_pressure;BME280_temperature;BME280_humidity;BME280_pressure;Samples;Min_cycle;Max_cycle;Signal;HPM_P1;HPM_P2
2021/12/21 00:00:28;;;;;;;;;;;;;;;;;;4182014;28;7053;-53
2021/12/21 00:02:50;;;;;;;;;;;;;;;;;;4182029;28;7006;-54
2021/12/21 00:05:17;;;;;;;;;;;;;;;;;;4181847;28;6986;-53
2021/12/21 00:07:39;;;;;;;;;;;;;;;;;;4181540;28;7060;-53
2021/12/21 00:10:00;;;;;;;;;;;;;;;;;;4181679;28;7026;-53
2021/12/21 00:12:25;;;;;;;;;;;;;;;;;;4181929;28;7010;-54
2021/12/21 00:14:57;;;;;;;;;;;;;;;;;;4181592;28;8026;-53
2021/12/21 00:17:42;;;;;;;;;;;;;;;;;;4181595;28;7006;-53
2021/12/21 00:20:23;;;;;;;;;;;;;;;;;;4181574;28;7483;-53
2021/12/21 00:25:27;;;;;;;;;;;;;;;;;;4181775;28;7002;-53
2021/12/21 00:27:49;;;;;;;;;;;;;;;;;;4181519;28;7026;-53
2021/12/21 00:30:11;;;;;;;;;;;;;;;;;;4181474;28;7154;-53
2021/12/21 00:32:34;;;;;;;;;;;;;;;;;;4181442;28;7005;-53
2021/12/21 00:34:55;;;;;;;;;;;;;;;;;;4181230;28;7027;-53
2021/12/21 00:37:18;;;;;;;;;;;;;;;;;;4181210;28;7051;-53
2021/12/21 00:39:39;;;;;;;;;;;;;;;;;;4181311;28;7143;-53
2021/12/21 00:42:01;;;;;;;;;;;;;;;;;;4181501;28;7130;-53
2021/12/21 00:44:22;;;;;;;;;;;;;;;;;;4181434;28;7025;-54
2021/12/21 00:46:44;;;;;;;;;;;;;;;;;;4181248;28;7418;-53
2021/12/21 00:49:14;;;;;;;;;;;;;;;;;;4180959;28;7030;-53
2021/12/21 00:51:36;;;;;;;;;;;;;;;;;;4181130;28;7509;-53
2021/12/21 00:53:57;;;;;;;;;;;;;;;;;;4181187;28;7475;-53
2021/12/21 00:56:19;;;;;;;;;;;;;;;;;;4180990;28;7022;-53
2021/12/21 00:58:40;;;;;;;;;;;;;;;;;;4181157;28;7411;-53
2021/12/21 01:01:04;;;;;;;;;;;;;;;;;;4181096;28;7232;-53
2021/12/21 01:03:26;;;;;;;;;;;;;;;;;;4180914;28;7017;-53
2021/12/21 01:05:55;;;;;;;;;;;;;;;;;;4180739;28;7161;-53
2021/12/21 01:08:21;;;;;;;;;;;;;;;;;;4181101;28;7006;-53
2021/12/21 01:13:45;;;;;;;;;;;;;;;;;;4180982;28;7041;-53
2021/12/21 01:16:18;;;;;;;;;;;;;;;;;;4180396;28;7033;-53
2021/12/21 01:18:53;;;;;;;;;;;;;;;;;;4180881;28;7006;-53
2021/12/21 01:21:19;;;;;;;;;;;;;;;;;;4180890;28;7014;-53
2021/12/21 01:24:01;;;;;;;;;;;;;;;;;;4180890;28;7018;-53
2021/12/21 01:26:29;;;;;;;;;;;;;;;;;;4180803;28;7021;-53
2021/12/21 01:28:58;;;;;;;;;;;;;;;;;;4180903;28;7426;-53
2021/12/21 01:31:27;;;;;;;;;;;;;;;;;;4180578;28;7023;-53
2021/12/21 01:34:01;;;;;;;;;;;;;;;;;;4180436;28;7403;-53
2021/12/21 01:36:30;;;;;;;;;;;;;;;;;;4180869;28;7065;-53
2021/12/21 01:38:58;;;;;;;;;;;;;;;;;;4180468;28;7015;-54
2021/12/21 01:41:29;;;;;;;;;;;;;;;;;;4180533;28;7024;-53
2021/12/21 01:44:01;;;;;;;;;;;;;;;;;;4180511;28;7393;-53
2021/12/21 01:51:42;;;;;;;;;;;;;;;;;;4180429;28;7132;-53
2021/12/21 01:54:03;;;;;;;;;;;;;;;;;;4180526;28;7006;-53
2021/12/21 01:56:25;;;;;;;;;;;;;;;;;;4180251;28;7002;-53
2021/12/21 01:58:46;;;;;;;;;;;;;;;;;;4178580;28;7033;-53
2021/12/21 02:01:42;;;;;;;;;;;;;;;;;;4180173;28;7021;-53
2021/12/21 02:04:03;;;;;;;;;;;;;;;;;;4179018;28;7488;-53
2021/12/21 02:06:26;;;;;;;;;;;;;;;;;;4177583;28;7109;-53
2021/12/21 02:08:48;;;;;;;;;;;;;;;;;;4179984;28;7007;-53
2021/12/21 02:11:09;;;;;;;;;;;;;;;;;;4179649;28;7057;-53
2021/12/21 02:13:33;;;;;;;;;;;;;;;;;;4179534;28;7171;-53
2021/12/21 02:15:54;;;;;;;;;;;;;;;;;;4179615;28;7230;-53
2021/12/21 02:18:38;;;;;;;;;;;;;;;;;;4179640;28;7037;-53
2021/12/21 02:21:05;;;;;;;;;;;;;;;;;;4179545;28;7022;-53
2021/12/21 02:23:32;;;;;;;;;;;;;;;;;;4179774;28;7033;-54
2021/12/21 02:31:13;;;;;;;;;;;;;;;;;;4172435;28;6998;-53
2021/12/21 02:33:35;;;;;;;;;;;;;;;;;;4182702;28;7101;-53
2021/12/21 02:35:58;;;;;;;;;;;;;;;;;;4182639;28;7514;-53
2021/12/21 02:38:20;;;;;;;;;;;;;;;;;;4182643;28;7006;-53
2021/12/21 02:40:42;;;;;;;;;;;;;;;;;;4182554;28;7203;-53
2021/12/21 02:43:03;;;;;;;;;;;;;;;;;;4182364;28;7177;-53
2021/12/21 02:45:24;;;;;;;;;;;;;;;;;;4182228;28;7042;-53
2021/12/21 02:47:46;;;;;;;;;;;;;;;;;;4182302;28;7178;-53
2021/12/21 02:50:08;;;;;;;;;;;;;;;;;;4182488;28;7147;-53
2021/12/21 02:52:29;;;;;;;;;;;;;;;;;;4166547;28;7022;-53
2021/12/21 02:54:52;;;;;;;;;;;;;;;;;;4166297;28;7019;-53
2021/12/21 02:57:13;;;;;;;;;;;;;;;;;;4166290;28;7002;-53
2021/12/21 02:59:34;;;;;;;;;;;;;;;;;;4166367;28;7002;-53
2021/12/21 03:01:56;;;;;;;;;;;;;;;;;;4167244;28;7149;-53
2021/12/21 03:04:17;;;;;;;;;;;;;;;;;;4181876;28;7486;-53
2021/12/21 03:07:13;;;;;;;;;;;;;;;;;;4182410;28;7168;-53
2021/12/21 03:09:42;;;;;;;;;;;;;;;;;;4182962;28;7221;-53
2021/12/21 03:12:26;;;;;;;;;;;;;;;;;;4182643;28;6994;-53
2021/12/21 03:14:48;;;;;;;;;;;;;;;;;;4181371;28;7073;-53
2021/12/21 03:17:09;;;;;;;;;;;;;;;;;;4182374;28;7006;-53
2021/12/21 03:19:30;;;;;;;;;;;;;;;;;;4182132;28;7022;-53
2021/12/21 03:21:53;;;;;;;;;;;;;;;;;;4182014;28;7158;-53
2021/12/21 03:24:14;;;;;;;;;;;;;;;;;;4182430;28;7146;-53
2021/12/21 03:26:35;;;;;;;;;;;;;;;;;;4182353;28;7046;-53
2021/12/21 03:28:58;;;;;;;;;;;;;;;;;;4182129;28;7010;-53
2021/12/21 03:31:19;;;;;;;;;;;;;;;;;;4182157;28;7176;-53
2021/12/21 03:33:40;;;;;;;;;;;;;;;;;;4182155;28;7010;-53
2021/12/21 03:36:02;;;;;;;;;;;;;;;;;;4181995;28;6998;-53
2021/12/21 03:38:24;;;;;;;;;;;;;;;;;;4180902;28;6999;-53
2021/12/21 03:40:45;;;;;;;;;;;;;;;;;;4182328;28;7139;-53
2021/12/21 03:43:07;;;;;;;;;;;;;;;;;;4181623;28;7002;-53
2021/12/21 03:45:32;;;;;;;;;;;;;;;;;;4181985;28;7011;-53
2021/12/21 03:47:53;;;;;;;;;;;;;;;;;;4181260;28;7041;-53
2021/12/21 03:50:19;;;;;;;;;;;;;;;;;;4179478;28;7006;-53
2021/12/21 03:52:40;;;;;;;;;;;;;;;;;;4181671;28;7162;-53
2021/12/21 03:55:02;;;;;;;;;;;;;;;;;;4177894;28;7006;-53
2021/12/21 03:57:23;;;;;;;;;;;;;;;;;;4181193;28;7109;-53
2021/12/21 03:59:45;;;;;;;;;;;;;;;;;;4181505;28;7018;-53
2021/12/21 04:02:08;;;;;;;;;;;;;;;;;;4181554;28;7229;-53
2021/12/21 04:04:29;;;;;;;;;;;;;;;;;;4181733;28;7241;-53
2021/12/21 04:06:50;;;;;;;;;;;;;;;;;;4181438;28;7017;-53
2021/12/21 04:09:12;;;;;;;;;;;;;;;;;;4180893;28;7002;-53
2021/12/21 04:11:33;;;;;;;;;;;;;;;;;;4181505;28;7182;-53
2021/12/21 04:13:56;;;;;;;;;;;;;;;;;;4181088;28;7199;-53
2021/12/21 04:16:17;;;;;;;;;;;;;;;;;;4181635;28;7143;-53
2021/12/21 04:18:40;;;;;;;;;;;;;;;;;;4181765;28;7021;-53
2021/12/21 04:21:01;;;;;;;;;;;;;;;;;;4181286;28;7006;-53
2021/12/21 04:23:23;;;;;;;;;;;;;;;;;;4181447;28;7019;-53
2021/12/21 04:25:44;;;;;;;;;;;;;;;;;;4182261;28;7489;-53
2021/12/21 04:28:05;;;;;;;;;;;;;;;;;;4181186;28;6991;-53
2021/12/21 04:30:26;;;;;;;;;;;;;;;;;;4181051;28;7056;-53
2021/12/21 04:32:47;;;;;;;;;;;;;;;;;;4181288;28;7018;-53
2021/12/21 04:35:11;;;;;;;;;;;;;;;;;;4181179;28;7022;-53
2021/12/21 04:37:35;;;;;;;;;;;;;;;;;;4181101;28;7162;-53
2021/12/21 04:40:02;;;;;;;;;;;;;;;;;;4181086;28;7048;-53
2021/12/21 04:42:23;;;;;;;;;;;;;;;;;;4181234;28;7152;-53
2021/12/21 04:44:44;;;;;;;;;;;;;;;;;;4180641;28;7407;-53
2021/12/21 04:47:06;;;;;;;;;;;;;;;;;;4180783;28;7167;-53
2021/12/21 04:49:27;;;;;;;;;;;;;;;;;;4180343;28;6989;-53
2021/12/21 04:51:50;;;;;;;;;;;;;;;;;;4180655;28;6974;-54
2021/12/21 04:54:11;;;;;;;;;;;;;;;;;;4181117;28;7029;-53
2021/12/21 04:56:32;;;;;;;;;;;;;;;;;;4180786;28;7022;-53
2021/12/21 04:58:53;;;;;;;;;;;;;;;;;;4180533;28;7022;-53
2021/12/21 05:01:15;;;;;;;;;;;;;;;;;;4180775;28;7023;-53
2021/12/21 05:03:36;;;;;;;;;;;;;;;;;;4181190;28;7010;-53
2021/12/21 05:05:57;;;;;;;;;;;;;;;;;;4180257;28;7059;-53
2021/12/21 05:08:23;;;;;;;;;;;;;;;;;;4180966;28;7047;-54
2021/12/21 05:10:48;;;;;;;;;;;;;;;;;;4178841;28;8215;-53
2021/12/21 05:13:09;;;;;;;;;;;;;;;;;;4180702;28;7081;-53
2021/12/21 05:15:31;;;;;;;;;;;;;;;;;;4180683;28;7006;-53
2021/12/21 05:17:52;;;;;;;;;;;;;;;;;;4180466;28;7168;-53
2021/12/21 05:20:13;;;;;;;;;;;;;;;;;;4180880;28;7010;-53
2021/12/21 05:22:34;;;;;;;;;;;;;;;;;;4180883;28;7010;-53
2021/12/21 05:24:57;;;;;;;;;;;;;;;;;;4180120;28;7177;-53
2021/12/21 05:27:18;;;;;;;;;;;;;;;;;;4181000;28;7171;-53
2021/12/21 05:29:40;;;;;;;;;;;;;;;;;;4180802;28;7006;-53
2021/12/21 05:32:01;;;;;;;;;;;;;;;;;;4180956;28;7043;-53
2021/12/21 05:34:22;;;;;;;;;;;;;;;;;;4180715;28;7006;-53
2021/12/21 05:36:44;;;;;;;;;;;;;;;;;;4180769;28;7179;-53
2021/12/21 05:39:15;;;;;;;;;;;;;;;;;;4180456;28;7006;-53
2021/12/21 05:41:48;;;;;;;;;;;;;;;;;;4180765;28;7010;-53
2021/12/21 05:44:09;;;;;;;;;;;;;;;;;;4180904;28;6986;-54
2021/12/21 05:46:30;;;;;;;;;;;;;;;;;;4180670;28;6990;-53
2021/12/21 05:48:55;;;;;;;;;;;;;;;;;;4180927;28;7434;-53
2021/12/21 05:51:16;;;;;;;;;;;;;;;;;;4180495;28;7026;-53
2021/12/21 05:53:37;;;;;;;;;;;;;;;;;;4180568;28;7009;-53
2021/12/21 05:55:59;;;;;;;;;;;;;;;;;;4180443;28;7014;-53
2021/12/21 05:58:22;;;;;;;;;;;;;;;;;;4180863;28;7168;-53
2021/12/21 06:00:43;;;;;;;;;;;;;;;;;;4180788;28;7022;-53
2021/12/21 06:03:04;;;;;;;;;;;;;;;;;;4183639;28;7026;-53
2021/12/21 06:05:26;;;;;;;;;;;;;;;;;;4183765;28;7167;-53
2021/12/21 06:07:50;;;;;;;;;;;;;;;;;;4183681;28;7470;-53
2021/12/21 06:10:15;;;;;;;;;;;;;;;;;;4183551;28;7407;-53
2021/12/21 06:12:54;;;;;;;;;;;;;;;;;;4183784;28;7422;-53
2021/12/21 06:15:27;;;;;;;;;;;;;;;;;;4183580;28;7002;-53
2021/12/21 06:23:29;;;;;;;;;;;;;;;;;;4183364;28;7209;-53
2021/12/21 06:25:54;;;;;;;;;;;;;;;;;;4183305;28;7025;-53
2021/12/21 06:28:15;;;;;;;;;;;;;;;;;;4183492;28;7002;-53
2021/12/21 06:30:39;;;;;;;;;;;;;;;;;;4183240;28;7044;-53
2021/12/21 06:33:00;;;;;;;;;;;;;;;;;;4183327;28;7021;-53
2021/12/21 06:35:21;;;;;;;;;;;;;;;;;;4183194;28;7159;-53
2021/12/21 06:37:43;;;;;;;;;;;;;;;;;;4183067;28;7146;-53
2021/12/21 06:40:05;;;;;;;;;;;;;;;;;;4180488;28;7065;-52
2021/12/21 06:42:27;;;;;;;;;;;;;;;;;;4182802;28;7035;-53
2021/12/21 06:44:54;;;;;;;;;;;;;;;;;;4182643;28;7021;-53
2021/12/21 06:52:35;;;;;;;;;;;;;;;;;;4182662;28;7011;-54
2021/12/21 06:54:57;;;;;;;;;;;;;;;;;;4182660;28;7022;-53
2021/12/21 06:57:18;;;;;;;;;;;;;;;;;;4182733;28;7018;-53
2021/12/21 06:59:39;;;;;;;;;;;;;;;;;;4182156;28;7006;-52
2021/12/21 07:02:01;;;;;;;;;;;;;;;;;;4182578;28;7010;-53
2021/12/21 07:04:24;;;;;;;;;;;;;;;;;;4182343;28;7044;-54
2021/12/21 07:06:46;;;;;;;;;;;;;;;;;;4182131;28;7698;-53
2021/12/21 07:09:13;;;;;;;;;;;;;;;;;;4181912;28;7006;-54
2021/12/21 07:11:42;;;;;;;;;;;;;;;;;;4182357;28;6970;-53
2021/12/21 07:19:23;;;;;;;;;;;;;;;;;;4182203;28;7492;-53
2021/12/21 07:21:44;;;;;;;;;;;;;;;;;;4182219;28;6998;-53
2021/12/21 07:24:06;;;;;;;;;;;;;;;;;;4182028;28;7006;-53
2021/12/21 07:26:28;;;;;;;;;;;;;;;;;;4182083;28;7049;-53
2021/12/21 07:28:49;;;;;;;;;;;;;;;;;;4182000;28;7092;-52
2021/12/21 07:31:10;;;;;;;;;;;;;;;;;;4181266;28;7029;-52
2021/12/21 07:33:32;;;;;;;;;;;;;;;;;;4181968;28;6986;-53
2021/12/21 07:35:54;;;;;;;;;;;;;;;;;;4181837;28;7044;-54
2021/12/21 07:38:15;;;;;;;;;;;;;;;;;;4181354;28;7019;-54
2021/12/21 07:40:37;;;;;;;;;;;;;;;;;;4181975;28;6990;-54
2021/12/21 07:43:00;;;;;;;;;;;;;;;;;;4181818;28;7006;-53
2021/12/21 07:45:22;;;;;;;;;;;;;;;;;;4180953;28;7402;-53
2021/12/21 07:47:43;;;;;;;;;;;;;;;;;;4181702;28;7077;-53
2021/12/21 07:50:06;;;;;;;;;;;;;;;;;;4181502;28;7017;-53
2021/12/21 07:52:28;;;;;;;;;;;;;;;;;;4181257;28;6983;-54
2021/12/21 07:54:49;;;;;;;;;;;;;;;;;;4181133;28;7002;-53
2021/12/21 07:57:11;;;;;;;;;;;;;;;;;;4181689;28;7483;-53
2021/12/21 07:59:32;;;;;;;;;;;;;;;;;;4181185;28;7393;-53
2021/12/21 08:01:54;;;;;;;;;;;;;;;;;;4194417;28;7177;-53
2021/12/21 08:04:15;;;;;;;;;;;;;;;;;;4181713;28;7231;-53
2021/12/21 08:06:37;;;;;;;;;;;;;;;;;;4181002;28;7210;-53
2021/12/21 08:09:01;;;;;;;;;;;;;;;;;;4165120;28;7018;-53
2021/12/21 08:12:11;;;;;;;;;;;;;;;;;;4165055;28;7002;-53
2021/12/21 08:14:10;;;;;;;;;;;;;;;;;;4164955;28;7143;-53
2021/12/21 08:16:31;;;;;;;;;;;;;;;;;;4178001;28;6995;-53
2021/12/21 08:18:53;;;;;;;;;;;;;;;;;;4181178;28;7084;-53
2021/12/21 08:21:17;;;;;;;;;;;;;;;;;;4178187;28;8751;-51
2021/12/21 08:23:39;;;;;;;;;;;;;;;;;;4180849;28;6998;-53
2021/12/21 08:26:02;;;;;;;;;;;;;;;;;;4180777;28;7382;-52
2021/12/21 08:28:23;;;;;;;;;;;;;;;;;;4181144;28;7159;-52
2021/12/21 08:30:45;;;;;;;;;;;;;;;;;;4180379;28;7148;-52
2021/12/21 08:33:06;;;;;;;;;;;;;;;;;;4180809;28;7163;-52
2021/12/21 08:35:28;;;;;;;;;;;;;;;;;;4176053;28;7405;-52
2021/12/21 08:37:52;;;;;;;;;;;;;;;;;;4179569;28;7006;-51
2021/12/21 08:40:14;;;;;;;;;;;;;;;;;;4181103;28;7061;-51
2021/12/21 08:42:38;;;;;;;;;;;;;;;;;;4164666;28;7006;-52
2021/12/21 08:45:06;;;;;;;;;;;;;;;;;;4165776;28;7306;-52
2021/12/21 08:47:28;;;;;;;;;;;;;;;;;;4180372;28;6998;-52
2021/12/21 08:49:50;;;;;;;;;;;;;;;;;;4176119;28;7022;-53
2021/12/21 08:52:11;;;;;;;;;;;;;;;;;;4172644;28;7006;-53
2021/12/21 08:54:32;;;;;;;;;;;;;;;;;;4172510;28;7002;-52
2021/12/21 08:56:53;;;;;;;;;;;;;;;;;;4173051;28;7034;-52
2021/12/21 08:59:16;;;;;;;;;;;;;;;;;;4179723;28;7430;-52
2021/12/21 09:01:38;;;;;;;;;;;;;;;;;;4180869;28;6986;-53
2021/12/21 09:03:59;;;;;;;;;;;;;;;;;;4180628;28;7026;-52
2021/12/21 09:06:21;;;;;;;;;;;;;;;;;;4180256;28;7171;-53
2021/12/21 09:08:42;;;;;;;;;;;;;;;;;;4179922;28;7081;-52
2021/12/21 09:11:05;;;;;;;;;;;;;;;;;;4180258;28;7287;-52
2021/12/21 09:13:26;;;;;;;;;;;;;;;;;;4180615;28;7018;-52
2021/12/21 09:15:49;;;;;;;;;;;;;;;;;;4180544;28;7012;-52
2021/12/21 09:18:10;;;;;;;;;;;;;;;;;;4180401;28;7006;-52
2021/12/21 09:20:32;;;;;;;;;;;;;;;;;;4179744;28;7033;-53
2021/12/21 09:22:53;;;;;;;;;;;;;;;;;;4180110;28;7006;-52
2021/12/21 09:25:15;;;;;;;;;;;;;;;;;;4180554;28;7053;-53
2021/12/21 09:27:36;;;;;;;;;;;;;;;;;;4180369;28;7721;-53
2021/12/21 09:29:57;;;;;;;;;;;;;;;;;;4180165;28;7026;-53
2021/12/21 09:32:19;;;;;;;;;;;;;;;;;;4179704;28;7639;-52
2021/12/21 09:34:41;;;;;;;;;;;;;;;;;;4176066;28;7080;-52
2021/12/21 09:37:03;;;;;;;;;;;;;;;;;;4170749;28;6986;-52
2021/12/21 09:39:25;;;;;;;;;;;;;;;;;;4183435;28;7022;-53
2021/12/21 09:41:46;;;;;;;;;;;;;;;;;;4183121;28;7006;-53
2021/12/21 09:44:08;;;;;;;;;;;;;;;;;;4175032;28;7010;-52
2021/12/21 09:46:29;;;;;;;;;;;;;;;;;;4177647;28;6986;-52
2021/12/21 09:48:54;;;;;;;;;;;;;;;;;;4172174;28;7035;-52
2021/12/21 09:51:15;;;;;;;;;;;;;;;;;;4172091;28;6982;-53
2021/12/21 09:53:37;;;;;;;;;;;;;;;;;;4177927;28;7006;-52
2021/12/21 09:55:58;;;;;;;;;;;;;;;;;;4183845;28;7002;-53
2021/12/21 09:58:20;;;;;;;;;;;;;;;;;;4183823;28;7085;-53
2021/12/21 10:00:41;;;;;;;;;;;;;;;;;;4181456;28;7006;-52
2021/12/21 10:03:04;;;;;;;;;;;;;;;;;;4179901;28;7002;-52
2021/12/21 10:05:27;;;;;;;;;;;;;;;;;;4165653;28;7109;-52
2021/12/21 10:08:01;;;;;;;;;;;;;;;;;;4181215;28;7183;-53
2021/12/21 10:10:22;;;;;;;;;;;;;;;;;;4183791;28;7434;-52
2021/12/21 10:12:43;;;;;;;;;;;;;;;;;;4183537;28;7207;-52
2021/12/21 10:15:06;;;;;;;;;;;;;;;;;;4189694;28;7053;-53
2021/12/21 10:17:27;;;;;;;;;;;;;;;;;;4183322;28;7216;-52
2021/12/21 10:19:48;;;;;;;;;;;;;;;;;;4180994;28;7011;-53
2021/12/21 10:22:12;;;;;;;;;;;;;;;;;;4182571;28;7140;-52
2021/12/21 10:24:33;;;;;;;;;;;;;;;;;;4183164;28;7120;-52
2021/12/21 10:27:06;;;;;;;;;;;;;;;;;;4181760;28;7022;-52
2021/12/21 10:29:28;;;;;;;;;;;;;;;;;;4181589;28;7026;-52
2021/12/21 10:31:50;;;;;;;;;;;;;;;;;;4179110;28;6993;-52
2021/12/21 10:34:13;;;;;;;;;;;;;;;;;;4174257;28;6997;-53
2021/12/21 10:36:40;;;;;;;;;;;;;;;;;;4181896;28;7054;-53
2021/12/21 10:39:03;;;;;;;;;;;;;;;;;;4182853;28;6998;-52
2021/12/21 10:41:28;;;;;;;;;;;;;;;;;;4166573;28;7010;-53
2021/12/21 10:43:56;;;;;;;;;;;;;;;;;;4180560;28;7010;-52
2021/12/21 10:46:17;;;;;;;;;;;;;;;;;;4172343;28;6998;-52
2021/12/21 10:48:45;;;;;;;;;;;;;;;;;;4176342;28;6990;-52
2021/12/21 10:51:11;;;;;;;;;;;;;;;;;;4182035;28;7422;-53
2021/12/21 10:53:33;;;;;;;;;;;;;;;;;;4181143;28;7002;-53
2021/12/21 10:56:04;;;;;;;;;;;;;;;;;;4182413;28;7023;-53
2021/12/21 10:58:26;;;;;;;;;;;;;;;;;;4181711;28;7002;-52
2021/12/21 11:00:55;;;;;;;;;;;;;;;;;;4182615;28;7044;-53
2021/12/21 11:03:18;;;;;;;;;;;;;;;;;;4182141;28;7002;-53
2021/12/21 11:05:42;;;;;;;;;;;;;;;;;;4180256;28;6993;-53
2021/12/21 11:08:06;;;;;;;;;;;;;;;;;;4182085;28;7069;-53
2021/12/21 11:10:30;;;;;;;;;;;;;;;;;;4182420;28;7148;-53
2021/12/21 11:12:53;;;;;;;;;;;;;;;;;;4181681;28;7015;-53
2021/12/21 11:15:15;;;;;;;;;;;;;;;;;;4181957;28;7812;-52
2021/12/21 11:17:37;;;;;;;;;;;;;;;;;;4182016;28;7010;-53
2021/12/21 11:19:58;;;;;;;;;;;;;;;;;;4181644;28;7053;-52
2021/12/21 11:22:20;;;;;;;;;;;;;;;;;;4174061;28;7006;-53
2021/12/21 11:24:41;;;;;;;;;;;;;;;;;;4180350;28;6990;-53
2021/12/21 11:27:03;;;;;;;;;;;;;;;;;;4165984;28;7011;-53
2021/12/21 11:29:25;;;;;;;;;;;;;;;;;;4165723;28;7003;-53
2021/12/21 11:31:48;;;;;;;;;;;;;;;;;;4166060;28;7446;-52
2021/12/21 11:34:13;;;;;;;;;;;;;;;;;;4165931;28;7461;-54
2021/12/21 11:39:14;;;;;;;;;;;;;;;;;;4165928;28;7002;-52
2021/12/21 11:41:36;;;;;;;;;;;;;;;;;;4175173;28;7157;-53
2021/12/21 11:43:59;;;;;;;;;;;;;;;;;;4179042;28;7010;-53
2021/12/21 11:46:25;;;;;;;;;;;;;;;;;;4176011;28;7061;-53
2021/12/21 11:48:47;;;;;;;;;;;;;;;;;;4182300;28;7106;-52
2021/12/21 11:51:09;;;;;;;;;;;;;;;;;;4182107;28;7418;-53
2021/12/21 11:53:31;;;;;;;;;;;;;;;;;;4182066;28;7167;-53
2021/12/21 11:55:53;;;;;;;;;;;;;;;;;;4181829;28;6994;-53
2021/12/21 11:58:16;;;;;;;;;;;;;;;;;;4181867;28;7101;-53
2021/12/21 12:00:37;;;;;;;;;;;;;;;;;;4181755;28;7058;-52
2021/12/21 12:03:09;;;;;;;;;;;;;;;;;;4181659;28;7002;-53
2021/12/21 12:05:31;;;;;;;;;;;;;;;;;;4181824;28;7002;-53
2021/12/21 12:08:02;;;;;;;;;;;;;;;;;;4181650;28;7008;-53
2021/12/21 12:10:23;;;;;;;;;;;;;;;;;;4181423;28;7173;-52
2021/12/21 12:12:44;;;;;;;;;;;;;;;;;;4181578;28;7006;-53
2021/12/21 12:15:06;;;;;;;;;;;;;;;;;;4179902;28;7020;-54
2021/12/21 12:17:30;;;;;;;;;;;;;;;;;;4181583;28;7100;-52
2021/12/21 12:19:55;;;;;;;;;;;;;;;;;;4181596;28;7025;-52
2021/12/21 12:22:16;;;;;;;;;;;;;;;;;;4174928;28;7014;-52
2021/12/21 12:24:39;;;;;;;;;;;;;;;;;;4167733;28;6986;-53
2021/12/21 12:27:01;;;;;;;;;;;;;;;;;;4169921;28;7015;-53
2021/12/21 12:29:22;;;;;;;;;;;;;;;;;;4181601;28;7414;-53
2021/12/21 12:31:47;;;;;;;;;;;;;;;;;;4170726;28;7069;-53
2021/12/21 12:34:08;;;;;;;;;;;;;;;;;;4177155;28;7018;-53
2021/12/21 12:36:35;;;;;;;;;;;;;;;;;;4172630;28;7470;-52
2021/12/21 12:38:57;;;;;;;;;;;;;;;;;;4175972;28;7097;-53
2021/12/21 12:41:18;;;;;;;;;;;;;;;;;;4167521;28;7002;-52
2021/12/21 12:43:41;;;;;;;;;;;;;;;;;;4171922;28;8240;-53
2021/12/21 12:46:04;;;;;;;;;;;;;;;;;;4178067;28;7162;-52
2021/12/21 12:48:29;;;;;;;;;;;;;;;;;;4178584;28;7010;-52
2021/12/21 12:50:50;;;;;;;;;;;;;;;;;;4179063;28;7049;-52
2021/12/21 12:53:13;;;;;;;;;;;;;;;;;;4164699;28;7215;-52
2021/12/21 12:55:37;;;;;;;;;;;;;;;;;;4162670;28;7031;-53
2021/12/21 12:57:58;;;;;;;;;;;;;;;;;;4162723;28;7026;-53
2021/12/21 13:00:21;;;;;;;;;;;;;;;;;;4163096;28;7002;-52
2021/12/21 13:02:55;;;;;;;;;;;;;;;;;;4162855;28;7034;-53
2021/12/21 13:05:16;;;;;;;;;;;;;;;;;;4176461;28;6998;-52
2021/12/21 13:07:38;;;;;;;;;;;;;;;;;;4176802;28;7014;-52
2021/12/21 13:10:05;;;;;;;;;;;;;;;;;;4178035;28;7041;-57
2021/12/21 13:12:26;;;;;;;;;;;;;;;;;;4178673;28;7002;-53
2021/12/21 13:14:54;;;;;;;;;;;;;;;;;;4178695;28;7022;-52
2021/12/21 13:17:16;;;;;;;;;;;;;;;;;;4178072;28;6998;-52
2021/12/21 13:19:38;;;;;;;;;;;;;;;;;;4172109;28;7007;-53
2021/12/21 13:22:01;;;;;;;;;;;;;;;;;;4178499;28;7038;-53
2021/12/21 13:24:23;;;;;;;;;;;;;;;;;;4178376;28;7049;-53
2021/12/21 13:26:48;;;;;;;;;;;;;;;;;;4178578;28;6982;-52
2021/12/21 13:29:10;;;;;;;;;;;;;;;;;;4179071;28;7581;-52
2021/12/21 13:31:32;;;;;;;;;;;;;;;;;;4162624;28;7006;-53
2021/12/21 13:33:55;;;;;;;;;;;;;;;;;;4162136;28;7018;-53
2021/12/21 13:36:16;;;;;;;;;;;;;;;;;;4162067;28;7985;-52
2021/12/21 13:38:38;;;;;;;;;;;;;;;;;;4162453;28;7019;-52
2021/12/21 13:41:00;;;;;;;;;;;;;;;;;;4177417;28;7051;-52
2021/12/21 13:43:23;;;;;;;;;;;;;;;;;;4177289;28;7284;-53
2021/12/21 13:45:44;;;;;;;;;;;;;;;;;;4178365;28;7026;-53
2021/12/21 13:48:05;;;;;;;;;;;;;;;;;;4177907;28;7006;-53
2021/12/21 13:50:27;;;;;;;;;;;;;;;;;;4178481;28;7002;-53
2021/12/21 13:52:52;;;;;;;;;;;;;;;;;;4177614;28;7022;-53
2021/12/21 13:55:20;;;;;;;;;;;;;;;;;;4178376;28;7041;-52
2021/12/21 13:57:41;;;;;;;;;;;;;;;;;;4178638;28;7002;-52
2021/12/21 14:00:07;;;;;;;;;;;;;;;;;;4178273;28;7015;-53
2021/12/21 14:02:34;;;;;;;;;;;;;;;;;;4178270;28;7392;-52
2021/12/21 14:05:00;;;;;;;;;;;;;;;;;;4176908;28;7005;-53
2021/12/21 14:07:21;;;;;;;;;;;;;;;;;;4179161;28;7006;-53
2021/12/21 14:09:43;;;;;;;;;;;;;;;;;;4179184;28;6986;-53
2021/12/21 14:12:05;;;;;;;;;;;;;;;;;;4171699;28;7262;-53
2021/12/21 14:14:26;;;;;;;;;;;;;;;;;;4179291;28;7006;-53
2021/12/21 14:16:49;;;;;;;;;;;;;;;;;;4180040;28;7026;-53
2021/12/21 14:19:13;;;;;;;;;;;;;;;;;;4179631;28;7050;-54
2021/12/21 14:21:36;;;;;;;;;;;;;;;;;;4180238;28;7026;-53
2021/12/21 14:23:58;;;;;;;;;;;;;;;;;;4182669;28;7056;-53
2021/12/21 14:26:20;;;;;;;;;;;;;;;;;;4188573;28;7018;-53
2021/12/21 14:28:48;;;;;;;;;;;;;;;;;;4186398;28;7043;-53
2021/12/21 14:31:13;;;;;;;;;;;;;;;;;;4199690;28;6994;-53
2021/12/21 14:33:45;;;;;;;;;;;;;;;;;;4184108;28;7006;-53
2021/12/21 14:36:08;;;;;;;;;;;;;;;;;;4182569;28;6986;-52
2021/12/21 14:38:30;;;;;;;;;;;;;;;;;;4180922;28;7006;-53
2021/12/21 14:40:52;;;;;;;;;;;;;;;;;;4169015;28;7018;-53
2021/12/21 14:43:22;;;;;;;;;;;;;;;;;;4166499;28;7010;-53
2021/12/21 14:45:46;;;;;;;;;;;;;;;;;;4166640;28;7030;-52
2021/12/21 14:48:14;;;;;;;;;;;;;;;;;;4166243;28;7173;-53
2021/12/21 14:50:46;;;;;;;;;;;;;;;;;;4166090;28;7469;-52
2021/12/21 14:53:15;;;;;;;;;;;;;;;;;;4166359;28;6990;-53
2021/12/21 14:55:36;;;;;;;;;;;;;;;;;;4166154;28;7434;-53
2021/12/21 14:58:00;;;;;;;;;;;;;;;;;;4166624;28;7005;-53
2021/12/21 15:00:23;;;;;;;;;;;;;;;;;;4166552;28;7047;-52
2021/12/21 15:02:50;;;;;;;;;;;;;;;;;;4166195;28;7144;-52
2021/12/21 15:05:12;;;;;;;;;;;;;;;;;;4170508;28;7226;-53
2021/12/21 15:07:36;;;;;;;;;;;;;;;;;;4182035;28;7566;-53
2021/12/21 15:09:59;;;;;;;;;;;;;;;;;;4181139;28;7201;-53
2021/12/21 15:12:20;;;;;;;;;;;;;;;;;;4182747;28;6994;-53
2021/12/21 15:14:42;;;;;;;;;;;;;;;;;;4182573;28;7155;-52
2021/12/21 15:17:03;;;;;;;;;;;;;;;;;;4182221;28;7422;-53
2021/12/21 15:19:24;;;;;;;;;;;;;;;;;;4182344;28;7006;-52
2021/12/21 15:21:46;;;;;;;;;;;;;;;;;;4182494;28;6970;-53
2021/12/21 15:24:09;;;;;;;;;;;;;;;;;;4182483;28;7014;-53
2021/12/21 15:26:30;;;;;;;;;;;;;;;;;;4181768;28;7105;-52
2021/12/21 15:28:51;;;;;;;;;;;;;;;;;;4182232;28;7022;-53
2021/12/21 15:31:14;;;;;;;;;;;;;;;;;;4181882;28;7045;-53
2021/12/21 15:33:35;;;;;;;;;;;;;;;;;;4180949;28;7006;-54
2021/12/21 15:35:57;;;;;;;;;;;;;;;;;;4182296;28;7451;-52
2021/12/21 15:38:18;;;;;;;;;;;;;;;;;;4181913;28;7002;-53
2021/12/21 15:40:42;;;;;;;;;;;;;;;;;;4181939;28;7195;-52
2021/12/21 15:43:06;;;;;;;;;;;;;;;;;;4182079;28;7005;-53
2021/12/21 15:45:28;;;;;;;;;;;;;;;;;;4181956;28;7006;-54
2021/12/21 15:47:49;;;;;;;;;;;;;;;;;;4182001;28;7019;-52
2021/12/21 15:50:10;;;;;;;;;;;;;;;;;;4182576;28;7169;-53
2021/12/21 15:52:32;;;;;;;;;;;;;;;;;;4183023;28;6991;-53
2021/12/21 15:54:53;;;;;;;;;;;;;;;;;;4182832;28;6986;-53
2021/12/21 15:57:16;;;;;;;;;;;;;;;;;;4182971;28;7149;-52
2021/12/21 15:59:37;;;;;;;;;;;;;;;;;;4179280;28;7099;-52
2021/12/21 16:01:58;;;;;;;;;;;;;;;;;;4170261;28;7013;-53
2021/12/21 16:04:20;;;;;;;;;;;;;;;;;;4182266;28;6986;-52
2021/12/21 16:06:41;;;;;;;;;;;;;;;;;;4182553;28;7118;-52
2021/12/21 16:09:03;;;;;;;;;;;;;;;;;;4182941;28;7010;-52
2021/12/21 16:11:24;;;;;;;;;;;;;;;;;;4182386;28;7410;-52
2021/12/21 16:13:47;;;;;;;;;;;;;;;;;;4182536;28;7006;-52
2021/12/21 16:16:08;;;;;;;;;;;;;;;;;;4182273;28;6990;-53
2021/12/21 16:18:29;;;;;;;;;;;;;;;;;;4182460;28;7159;-52
2021/12/21 16:20:51;;;;;;;;;;;;;;;;;;4182451;28;7006;-52
2021/12/21 16:23:12;;;;;;;;;;;;;;;;;;4182619;28;6982;-52
2021/12/21 16:25:34;;;;;;;;;;;;;;;;;;4182561;28;7110;-52
2021/12/21 16:27:55;;;;;;;;;;;;;;;;;;4182437;28;7139;-53
2021/12/21 16:30:19;;;;;;;;;;;;;;;;;;4182210;28;7045;-52
2021/12/21 16:32:40;;;;;;;;;;;;;;;;;;4182021;28;7010;-52
2021/12/21 16:35:02;;;;;;;;;;;;;;;;;;4182429;28;6990;-52
2021/12/21 16:37:23;;;;;;;;;;;;;;;;;;4182419;28;7002;-53
2021/12/21 16:39:45;;;;;;;;;;;;;;;;;;4182084;28;7019;-52
2021/12/21 16:42:07;;;;;;;;;;;;;;;;;;4182319;28;7539;-52
2021/12/21 16:44:28;;;;;;;;;;;;;;;;;;4165446;28;7019;-52
2021/12/21 16:46:51;;;;;;;;;;;;;;;;;;4164571;28;7015;-53
2021/12/21 16:49:12;;;;;;;;;;;;;;;;;;4165626;28;7006;-53
2021/12/21 16:51:34;;;;;;;;;;;;;;;;;;4165628;28;7002;-52
2021/12/21 16:53:55;;;;;;;;;;;;;;;;;;4177447;28;6993;-52
2021/12/21 16:56:16;;;;;;;;;;;;;;;;;;4181989;28;7165;-53
2021/12/21 16:58:40;;;;;;;;;;;;;;;;;;4181198;28;7006;-53
2021/12/21 17:01:02;;;;;;;;;;;;;;;;;;4181320;28;7065;-53
2021/12/21 17:03:25;;;;;;;;;;;;;;;;;;4181785;28;7129;-53
2021/12/21 17:05:46;;;;;;;;;;;;;;;;;;4179146;28;7027;-53
2021/12/21 17:08:08;;;;;;;;;;;;;;;;;;4180856;28;7010;-54
2021/12/21 17:10:31;;;;;;;;;;;;;;;;;;4180883;28;31648;-53